Terminal Aerodrome Forecast
Issued by NWS

Home | Current Version | Previous Version | Text Only | Print | Product List | Glossary On
Versions: 1 2 3 4 5 6 7 8 9 10 11 12 13 14 15 16 17 18 19 20 21 22
000
FTUS44 KLZK 050500
TAFHOT
TAF
KHOT 050533Z 0506/0606 36012G22KT 6SM -PL BR SCT015 OVC040
      TEMPO 0506/0508 3SM -PLSN BR OVC015
     FM050800 03012G20KT 2SM -SN BR OVC009
     FM051300 03009KT P6SM BKN040
     FM051800 03008KT P6SM SCT050
     FM060000 05003KT P6SM SKC=

USA.gov is the U.S. government's official web portal to all federal, state and local government web resources and services.